createdAt,value
2019-03-21T00:01:26.496Z,66.30
2019-03-21T00:03:57.273Z,66.20
2019-03-21T00:06:25.280Z,66.30
2019-03-21T00:08:53.247Z,66.60
2019-03-21T00:11:58.105Z,67.10
2019-03-21T00:15:02.735Z,66.70
2019-03-21T00:17:36.775Z,67.60
2019-03-21T00:20:08.278Z,67.70
2019-03-21T00:22:36.238Z,67.60
2019-03-21T00:25:05.377Z,67.70
2019-03-21T00:27:33.296Z,67.30
2019-03-21T00:30:01.243Z,67.20
2019-03-21T00:32:29.128Z,66.80
2019-03-21T00:34:57.107Z,66.50
2019-03-21T00:37:25.003Z,66.60
2019-03-21T00:39:53.371Z,66.80
2019-03-21T00:42:21.332Z,67.20
2019-03-21T00:44:49.295Z,66.80
2019-03-21T00:47:17.467Z,66.70
2019-03-21T00:49:45.416Z,67.10
2019-03-21T00:52:13.403Z,67.10
2019-03-21T00:54:41.695Z,66.80
2019-03-21T00:57:09.693Z,67.10
2019-03-21T00:59:38.033Z,67.50
2019-03-21T01:02:06.037Z,67.90
2019-03-21T01:04:34.169Z,67.90
2019-03-21T01:07:02.200Z,67.70
2019-03-21T01:09:30.214Z,67.60
2019-03-21T01:11:58.802Z,67.30
2019-03-21T01:14:29.977Z,67.50
2019-03-21T01:16:56.495Z,67.30
2019-03-21T01:19:24.444Z,67.10
2019-03-21T01:21:52.415Z,67.00
2019-03-21T01:24:20.358Z,66.70
2019-03-21T01:26:48.199Z,66.70
2019-03-21T01:29:16.199Z,66.50
2019-03-21T01:31:44.259Z,66.20
2019-03-21T01:34:12.211Z,66.20
2019-03-21T01:36:40.060Z,66.20
2019-03-21T01:39:08.375Z,66.00
2019-03-21T01:41:36.229Z,66.00
2019-03-21T01:44:04.356Z,65.60
2019-03-21T01:46:32.292Z,65.80
2019-03-21T01:49:00.231Z,66.00
2019-03-21T01:51:28.539Z,66.30
2019-03-21T01:53:56.492Z,66.70
2019-03-21T01:56:25.127Z,66.50
2019-03-21T01:58:52.949Z,66.20
2019-03-21T02:01:20.804Z,66.60
2019-03-21T02:03:48.729Z,66.90
2019-03-21T02:06:16.717Z,67.40
2019-03-21T02:08:44.644Z,66.80
2019-03-21T02:11:12.892Z,66.80
2019-03-21T02:13:40.841Z,66.70
2019-03-21T02:16:08.819Z,66.70
2019-03-21T02:18:36.779Z,66.90
2019-03-21T02:21:05.067Z,66.30
2019-03-21T02:23:33.055Z,66.30
2019-03-21T02:26:01.011Z,66.70
2019-03-21T02:28:28.943Z,66.50
2019-03-21T02:30:56.824Z,66.00
2019-03-21T02:33:29.845Z,66.30
2019-03-21T02:35:57.865Z,66.00
2019-03-21T02:38:25.874Z,66.20
2019-03-21T02:40:53.942Z,65.90
2019-03-21T02:43:21.895Z,66.70
2019-03-21T02:45:49.852Z,66.50
2019-03-21T02:48:18.090Z,66.40
2019-03-21T02:50:46.011Z,66.50
2019-03-21T02:53:13.957Z,65.80
2019-03-21T02:55:41.817Z,65.90
2019-03-21T02:58:09.751Z,65.80
2019-03-21T03:00:37.854Z,66.30
2019-03-21T03:03:05.780Z,66.50
2019-03-21T03:05:33.718Z,66.00
2019-03-21T03:08:01.581Z,66.40
2019-03-21T03:10:37.813Z,66.80
2019-03-21T03:13:05.795Z,66.40
2019-03-21T03:15:33.668Z,65.80
2019-03-21T03:18:01.984Z,65.70
2019-03-21T03:20:29.929Z,65.50
2019-03-21T03:22:57.872Z,65.80
2019-03-21T03:25:25.785Z,65.40
2019-03-21T03:27:55.297Z,65.70
2019-03-21T03:30:23.293Z,66.10
2019-03-21T03:32:51.284Z,66.00
2019-03-21T03:35:19.499Z,65.80
2019-03-21T03:37:47.373Z,66.10
2019-03-21T03:40:18.311Z,66.20
2019-03-21T03:42:46.285Z,66.60
2019-03-21T03:45:17.536Z,65.90
2019-03-21T03:47:45.474Z,66.20
2019-03-21T03:50:13.413Z,66.50
2019-03-21T03:52:41.344Z,66.60
2019-03-21T03:55:10.325Z,66.10
2019-03-21T03:57:38.267Z,65.90
2019-03-21T04:00:08.007Z,66.30
2019-03-21T04:02:35.939Z,66.50
2019-03-21T04:05:04.359Z,66.40
2019-03-21T04:07:32.297Z,66.30
2019-03-21T04:10:00.488Z,66.60
2019-03-21T04:12:28.782Z,66.70
2019-03-21T04:14:56.631Z,67.00
2019-03-21T04:17:24.492Z,66.80
2019-03-21T04:19:52.455Z,66.90
2019-03-21T04:22:20.397Z,67.00
2019-03-21T04:24:48.354Z,67.30
2019-03-21T04:27:16.334Z,67.10
2019-03-21T04:29:44.338Z,67.10
2019-03-21T04:32:12.254Z,67.10
2019-03-21T04:34:40.186Z,67.10
2019-03-21T04:37:07.996Z,67.10
2019-03-21T04:39:35.988Z,67.50
2019-03-21T04:42:03.891Z,67.80
2019-03-21T04:44:31.753Z,67.60
2019-03-21T04:46:59.670Z,67.60
2019-03-21T04:49:28.408Z,68.00
2019-03-21T04:51:56.330Z,67.80
2019-03-21T04:54:24.238Z,68.00
2019-03-21T04:56:52.111Z,68.60
2019-03-21T04:59:20.033Z,68.60
2019-03-21T05:01:48.260Z,68.30
2019-03-21T05:04:16.226Z,68.70
2019-03-21T05:06:44.157Z,68.30
2019-03-21T05:09:15.398Z,68.10
2019-03-21T05:11:43.265Z,68.10
2019-03-21T05:14:11.134Z,67.40
2019-03-21T05:16:39.129Z,67.50
2019-03-21T05:19:07.522Z,67.80
2019-03-21T05:21:35.530Z,67.80
2019-03-21T05:24:03.533Z,67.50
2019-03-21T05:26:31.594Z,67.10
2019-03-21T05:28:59.495Z,67.20
2019-03-21T05:31:30.015Z,67.10
2019-03-21T05:33:57.960Z,67.50
2019-03-21T05:36:25.916Z,67.60
2019-03-21T05:38:53.863Z,67.70
2019-03-21T05:41:22.181Z,68.30
2019-03-21T05:43:53.492Z,69.00
2019-03-21T05:46:26.443Z,69.10
2019-03-21T05:48:51.216Z,69.50
2019-03-21T05:51:19.178Z,69.20
2019-03-21T05:53:47.042Z,69.20
2019-03-21T05:56:14.958Z,68.90
2019-03-21T05:58:42.946Z,68.90
2019-03-21T06:01:10.877Z,68.90
2019-03-21T06:03:47.494Z,68.50
2019-03-21T06:06:22.081Z,68.70
2019-03-21T06:08:50.042Z,68.60
2019-03-21T06:11:18.180Z,68.20
2019-03-21T06:13:46.156Z,68.30
2019-03-21T06:16:14.036Z,67.90
2019-03-21T06:19:12.617Z,68.70
2019-03-21T06:21:54.471Z,68.80
2019-03-21T06:24:42.530Z,69.10
2019-03-21T06:27:41.952Z,69.70
2019-03-21T06:30:10.566Z,69.50
2019-03-21T06:32:38.536Z,69.30
2019-03-21T06:35:18.384Z,69.50
2019-03-21T06:37:46.250Z,69.50
2019-03-21T06:40:14.089Z,68.80
2019-03-21T06:42:42.037Z,68.40
2019-03-21T06:45:10.006Z,68.90
2019-03-21T06:47:37.868Z,69.50
2019-03-21T06:50:06.041Z,68.40
2019-03-21T06:52:33.980Z,68.70
2019-03-21T06:55:02.115Z,68.20
2019-03-21T06:57:30.090Z,68.10
2019-03-21T06:59:57.915Z,68.00
2019-03-21T07:02:25.851Z,68.60
2019-03-21T07:04:53.675Z,67.90
2019-03-21T07:07:21.648Z,68.30
2019-03-21T07:09:49.581Z,68.60
2019-03-21T07:12:17.544Z,68.80
2019-03-21T07:14:45.397Z,68.70
2019-03-21T07:17:13.364Z,68.10
2019-03-21T07:19:41.196Z,67.40
2019-03-21T07:22:09.134Z,67.10
2019-03-21T07:24:36.980Z,66.90
2019-03-21T07:27:05.094Z,67.10
2019-03-21T07:29:33.031Z,66.00
2019-03-21T07:32:00.884Z,66.40
2019-03-21T07:34:28.733Z,65.40
2019-03-21T07:36:56.578Z,66.80
2019-03-21T07:39:24.526Z,66.30
2019-03-21T07:41:52.367Z,66.10
2019-03-21T07:44:20.326Z,65.60
2019-03-21T07:46:48.257Z,65.50
2019-03-21T07:49:16.179Z,66.00
2019-03-21T07:51:45.288Z,65.30
2019-03-21T07:54:13.444Z,64.70
2019-03-21T07:56:41.296Z,64.90
2019-03-21T07:59:09.162Z,65.00
2019-03-21T08:01:37.091Z,65.30
2019-03-21T08:04:05.016Z,64.70
2019-03-21T08:06:32.958Z,63.50
2019-03-21T08:09:00.829Z,63.00
2019-03-21T08:11:29.100Z,63.70
2019-03-21T08:13:56.932Z,63.20
2019-03-21T08:16:24.848Z,62.00
2019-03-21T08:18:52.825Z,61.60
2019-03-21T08:21:20.781Z,61.10
2019-03-21T08:23:48.753Z,61.40
2019-03-21T08:26:16.625Z,61.60
2019-03-21T08:28:44.462Z,60.90
2019-03-21T08:31:14.074Z,61.30
2019-03-21T08:33:42.137Z,61.10
2019-03-21T08:36:10.173Z,60.60
2019-03-21T08:38:38.098Z,60.20
2019-03-21T08:41:06.139Z,60.30
2019-03-21T08:43:33.848Z,60.30
2019-03-21T08:46:01.711Z,59.90
2019-03-21T08:48:29.540Z,60.40
2019-03-21T08:51:07.831Z,59.70
2019-03-21T08:53:27.172Z,59.30
2019-03-21T08:55:55.495Z,59.80
2019-03-21T08:58:23.417Z,59.70
2019-03-21T09:00:51.348Z,58.70
2019-03-21T09:03:19.306Z,58.60
2019-03-21T09:05:47.266Z,57.50
2019-03-21T09:08:15.105Z,57.10
2019-03-21T09:10:42.935Z,56.60
2019-03-21T09:13:10.797Z,57.10
2019-03-21T09:15:38.741Z,55.50
2019-03-21T09:18:06.729Z,55.50
2019-03-21T09:20:34.683Z,55.30
2019-03-21T09:23:02.955Z,54.70
2019-03-21T09:25:30.813Z,54.20
2019-03-21T09:28:02.951Z,51.50
2019-03-21T09:30:28.529Z,51.20
2019-03-21T09:32:56.472Z,51.70
2019-03-21T09:35:24.332Z,51.60
2019-03-21T09:37:52.316Z,51.00
2019-03-21T09:40:20.231Z,51.10
2019-03-21T09:42:48.171Z,50.40
2019-03-21T09:45:15.996Z,50.60
2019-03-21T09:47:44.217Z,51.00
2019-03-21T09:50:17.317Z,50.00
2019-03-21T09:52:45.662Z,50.70
2019-03-21T09:55:13.687Z,50.10
2019-03-21T09:57:41.679Z,48.60
2019-03-21T10:00:09.766Z,47.80
2019-03-21T10:02:37.724Z,46.20
2019-03-21T10:05:06.270Z,45.30
2019-03-21T10:07:34.249Z,42.90
2019-03-21T10:10:02.211Z,41.50
2019-03-21T10:12:30.198Z,43.20
2019-03-21T10:14:58.151Z,40.00
2019-03-21T10:17:26.189Z,38.00
2019-03-21T10:19:54.164Z,37.10
2019-03-21T10:22:22.154Z,34.70
2019-03-21T10:24:50.115Z,34.30
2019-03-21T10:27:18.159Z,30.90
2019-03-21T10:29:46.137Z,30.40
2019-03-21T10:32:14.765Z,29.20
2019-03-21T10:34:42.813Z,30.80
2019-03-21T10:37:10.775Z,30.30
2019-03-21T10:39:38.719Z,28.90
2019-03-21T10:42:07.034Z,28.30
2019-03-21T10:44:34.902Z,30.00
2019-03-21T10:47:02.889Z,28.70
2019-03-21T10:49:30.862Z,28.30
2019-03-21T10:51:58.839Z,27.20
2019-03-21T10:54:27.211Z,24.70
2019-03-21T10:56:55.538Z,22.90
2019-03-21T10:59:23.543Z,23.70
2019-03-21T11:01:51.511Z,24.10
2019-03-21T11:04:19.500Z,23.40
2019-03-21T11:06:47.441Z,23.40
2019-03-21T11:09:15.423Z,23.00
2019-03-21T11:11:43.404Z,21.70
2019-03-21T11:14:11.398Z,21.70
2019-03-21T11:16:39.298Z,20.30
2019-03-21T11:19:07.180Z,19.30
2019-03-21T11:21:35.113Z,19.00
2019-03-21T11:24:03.192Z,19.80
2019-03-21T11:26:31.118Z,19.80
2019-03-21T11:28:59.013Z,18.50
2019-03-21T11:31:26.936Z,18.30
2019-03-21T11:33:54.951Z,18.00
2019-03-21T11:36:22.878Z,16.90
2019-03-21T11:38:50.819Z,17.80
2019-03-21T11:41:18.774Z,17.60
2019-03-21T11:43:46.637Z,17.70
2019-03-21T11:46:14.582Z,19.70
2019-03-21T11:48:42.589Z,19.80
2019-03-21T11:51:10.505Z,18.90
2019-03-21T11:53:38.497Z,19.50
2019-03-21T11:56:06.365Z,20.90
2019-03-21T11:58:34.346Z,20.10
2019-03-21T12:01:02.229Z,19.60
2019-03-21T12:03:30.513Z,19.70
2019-03-21T12:05:58.447Z,21.30
2019-03-21T12:08:26.400Z,20.20
2019-03-21T12:10:54.368Z,20.90
2019-03-21T12:13:22.347Z,19.50
2019-03-21T12:15:50.676Z,19.60
2019-03-21T12:18:18.659Z,20.60
2019-03-21T12:20:46.548Z,22.10
2019-03-21T12:23:14.407Z,23.10
2019-03-21T12:25:42.761Z,22.30
2019-03-21T12:28:10.723Z,23.30
2019-03-21T12:30:40.155Z,23.20
2019-03-21T12:33:08.165Z,24.00
2019-03-21T12:35:36.379Z,23.00
2019-03-21T12:38:05.131Z,24.10
2019-03-21T12:40:34.203Z,26.40
2019-03-21T12:43:02.093Z,28.20
2019-03-21T12:45:30.015Z,28.20
2019-03-21T12:47:57.981Z,26.20
2019-03-21T12:50:25.906Z,28.70
2019-03-21T12:52:53.871Z,26.40
2019-03-21T12:55:21.809Z,25.70
2019-03-21T12:57:49.804Z,26.20
2019-03-21T13:00:31.335Z,27.30
2019-03-21T13:02:59.334Z,25.80
2019-03-21T13:05:27.954Z,25.30
2019-03-21T13:07:55.911Z,25.00
2019-03-21T13:10:23.896Z,25.50
2019-03-21T13:12:51.915Z,25.40
2019-03-21T13:15:29.442Z,25.70
2019-03-21T13:17:49.617Z,26.60
2019-03-21T13:20:17.463Z,26.00
2019-03-21T13:22:52.788Z,25.00
2019-03-21T13:25:15.484Z,26.30
2019-03-21T13:27:43.427Z,24.70
2019-03-21T13:30:11.872Z,24.30
2019-03-21T13:32:39.719Z,23.80
2019-03-21T13:35:07.666Z,23.20
2019-03-21T13:37:35.622Z,23.10
2019-03-21T13:40:04.108Z,23.60
2019-03-21T13:42:32.087Z,23.20
2019-03-21T13:45:00.019Z,23.10
2019-03-21T13:47:27.904Z,22.80
2019-03-21T13:49:55.727Z,21.90
2019-03-21T13:52:23.490Z,23.40
2019-03-21T13:54:51.391Z,22.70
2019-03-21T13:57:19.310Z,21.80
2019-03-21T13:59:47.319Z,22.50
2019-03-21T14:02:15.536Z,23.00
2019-03-21T14:04:43.494Z,22.30
2019-03-21T14:07:11.418Z,21.40
2019-03-21T14:09:39.442Z,21.60
2019-03-21T14:12:07.465Z,22.00
2019-03-21T14:14:35.465Z,21.40
2019-03-21T14:17:03.444Z,21.60
2019-03-21T14:19:31.422Z,22.30
2019-03-21T14:21:59.451Z,22.50
2019-03-21T14:24:28.105Z,21.80
2019-03-21T14:26:56.019Z,21.20
2019-03-21T14:29:24.292Z,20.90
2019-03-21T14:31:52.267Z,20.30
2019-03-21T14:34:20.310Z,20.10
2019-03-21T14:36:48.287Z,21.00
2019-03-21T14:39:16.172Z,21.40
2019-03-21T14:41:44.434Z,22.50
2019-03-21T14:44:12.395Z,21.80
2019-03-21T14:46:40.408Z,21.20
2019-03-21T14:49:08.382Z,23.10
2019-03-21T14:51:36.337Z,23.00
2019-03-21T14:54:04.280Z,23.10
2019-03-21T14:56:32.247Z,23.20
2019-03-21T14:59:00.187Z,23.90
2019-03-21T15:01:28.144Z,24.80
2019-03-21T15:03:56.125Z,25.40
2019-03-21T15:06:24.130Z,25.20
2019-03-21T15:08:52.072Z,25.20
2019-03-21T15:11:20.052Z,24.10
2019-03-21T15:13:48.178Z,23.50
2019-03-21T15:16:16.145Z,22.50
2019-03-21T15:18:44.182Z,22.10
2019-03-21T15:21:12.142Z,21.80
2019-03-21T15:23:41.073Z,22.50
2019-03-21T15:26:10.885Z,22.90
2019-03-21T15:28:38.851Z,22.80
2019-03-21T15:31:06.818Z,22.40
2019-03-21T15:33:34.791Z,23.50
2019-03-21T15:36:02.798Z,25.00
2019-03-21T15:38:31.066Z,26.60
2019-03-21T15:40:59.039Z,28.40
2019-03-21T15:43:27.010Z,27.80
2019-03-21T15:45:55.048Z,27.90
2019-03-21T15:48:23.056Z,29.30
2019-03-21T15:50:50.886Z,30.10
2019-03-21T15:53:18.769Z,29.50
2019-03-21T15:55:46.696Z,29.60
2019-03-21T15:58:14.685Z,30.70
2019-03-21T16:00:43.273Z,32.30
2019-03-21T16:03:11.964Z,33.00
2019-03-21T16:05:41.090Z,32.60
2019-03-21T16:08:09.534Z,33.60
2019-03-21T16:10:38.091Z,34.70
2019-03-21T16:13:06.092Z,34.60
2019-03-21T16:15:34.093Z,35.30
2019-03-21T16:18:02.160Z,34.30
2019-03-21T16:20:30.138Z,35.60
2019-03-21T16:22:58.095Z,34.40
2019-03-21T16:25:26.109Z,35.50
2019-03-21T16:27:54.057Z,36.30
2019-03-21T16:30:22.022Z,35.70
2019-03-21T16:32:51.121Z,36.30
2019-03-21T16:35:19.120Z,37.00
2019-03-21T16:37:47.130Z,36.50
2019-03-21T16:40:15.111Z,37.00
2019-03-21T16:42:44.494Z,36.90
2019-03-21T16:45:12.506Z,36.80
2019-03-21T16:47:40.470Z,38.00
2019-03-21T16:50:08.586Z,38.00
2019-03-21T16:52:36.614Z,38.40
2019-03-21T16:55:05.313Z,38.80
2019-03-21T16:57:33.277Z,38.30
2019-03-21T17:00:01.321Z,39.10
2019-03-21T17:02:29.319Z,39.30
2019-03-21T17:04:57.318Z,39.80
2019-03-21T17:07:25.346Z,39.20
2019-03-21T17:09:53.751Z,39.80
2019-03-21T17:12:21.818Z,39.70
2019-03-21T17:14:49.749Z,40.30
2019-03-21T17:17:17.797Z,40.60
2019-03-21T17:19:45.849Z,40.70
2019-03-21T17:22:13.834Z,41.50
2019-03-21T17:24:42.232Z,42.10
2019-03-21T17:27:10.265Z,42.50
2019-03-21T17:29:38.177Z,41.80
2019-03-21T17:32:06.196Z,42.70
2019-03-21T17:34:34.660Z,42.80
2019-03-21T17:37:02.623Z,42.60
2019-03-21T17:39:30.619Z,43.40
2019-03-21T17:41:58.733Z,43.20
2019-03-21T17:44:26.753Z,43.80
2019-03-21T17:46:54.749Z,43.90
2019-03-21T17:49:22.710Z,44.30
2019-03-21T17:51:50.633Z,44.90
2019-03-21T17:54:18.916Z,44.40
2019-03-21T17:56:46.919Z,44.40
2019-03-21T17:59:14.882Z,44.70
2019-03-21T18:01:42.873Z,45.10
2019-03-21T18:04:10.865Z,45.80
2019-03-21T18:06:38.802Z,45.80
2019-03-21T18:09:07.312Z,46.00
2019-03-21T18:11:35.323Z,46.00
2019-03-21T18:14:03.773Z,46.00
2019-03-21T18:16:31.839Z,46.30
2019-03-21T18:19:00.113Z,46.30
2019-03-21T18:21:28.457Z,46.40
2019-03-21T18:23:56.532Z,46.40
2019-03-21T18:26:24.546Z,46.40
2019-03-21T18:28:52.612Z,46.90
2019-03-21T18:31:20.739Z,46.70
2019-03-21T18:33:48.773Z,47.00
2019-03-21T18:36:16.833Z,46.90
2019-03-21T18:38:56.629Z,47.20
2019-03-21T18:41:14.683Z,47.40
2019-03-21T18:43:42.692Z,47.40
2019-03-21T18:46:10.706Z,47.40
2019-03-21T18:48:38.757Z,47.20
2019-03-21T18:51:06.775Z,47.90
2019-03-21T18:53:34.814Z,47.90
2019-03-21T18:56:03.236Z,48.10
2019-03-21T18:58:31.251Z,48.50
2019-03-21T19:00:59.164Z,48.80
2019-03-21T19:03:27.233Z,48.50
2019-03-21T19:05:55.195Z,48.40
2019-03-21T19:08:23.280Z,48.80
2019-03-21T19:10:51.433Z,48.70
2019-03-21T19:13:19.547Z,49.10
2019-03-21T19:15:47.533Z,49.40
2019-03-21T19:18:15.564Z,49.60
2019-03-21T19:20:43.536Z,49.80
2019-03-21T19:23:11.535Z,49.50
2019-03-21T19:25:39.577Z,49.70
2019-03-21T19:28:08.044Z,50.40
2019-03-21T19:30:36.359Z,50.40
2019-03-21T19:33:04.390Z,51.10
2019-03-21T19:35:32.759Z,51.00
2019-03-21T19:38:00.794Z,50.90
2019-03-21T19:40:28.789Z,51.00
2019-03-21T19:42:56.944Z,51.60
2019-03-21T19:45:25.039Z,51.80
2019-03-21T19:47:53.129Z,52.20
2019-03-21T19:50:21.769Z,53.20
2019-03-21T19:52:49.776Z,53.00
2019-03-21T19:55:25.851Z,53.30
2019-03-21T19:57:48.250Z,53.50
2019-03-21T20:00:17.857Z,54.10
2019-03-21T20:02:45.953Z,54.70
2019-03-21T20:05:14.510Z,54.30
2019-03-21T20:07:42.694Z,55.00
2019-03-21T20:10:11.403Z,55.40
2019-03-21T20:12:39.884Z,55.90
2019-03-21T20:15:08.482Z,56.10
2019-03-21T20:17:36.512Z,56.60
2019-03-21T20:20:05.528Z,56.70
2019-03-21T20:22:33.642Z,56.50
2019-03-21T20:25:02.543Z,56.80
2019-03-21T20:27:30.926Z,56.90
2019-03-21T20:29:58.978Z,56.90
2019-03-21T20:32:27.031Z,57.30
2019-03-21T20:34:55.047Z,57.20
2019-03-21T20:37:23.017Z,57.50
2019-03-21T20:39:51.056Z,57.90
2019-03-21T20:42:19.113Z,57.90
2019-03-21T20:44:47.107Z,58.10
2019-03-21T20:47:15.219Z,57.60
2019-03-21T20:49:43.563Z,57.10
2019-03-21T20:52:11.577Z,57.30
2019-03-21T20:54:39.673Z,57.70
2019-03-21T20:57:08.009Z,57.80
2019-03-21T20:59:36.090Z,57.80
2019-03-21T21:02:04.250Z,57.90
2019-03-21T21:04:32.214Z,58.00
2019-03-21T21:07:00.238Z,58.00
2019-03-21T21:09:28.334Z,58.40
2019-03-21T21:12:15.927Z,58.60
2019-03-21T21:14:44.036Z,58.90
2019-03-21T21:17:12.093Z,58.90
2019-03-21T21:19:40.145Z,59.40
2019-03-21T21:22:09.075Z,59.90
2019-03-21T21:24:37.108Z,61.80
2019-03-21T21:27:05.496Z,62.20
2019-03-21T21:29:33.630Z,63.50
2019-03-21T21:32:02.061Z,63.80
2019-03-21T21:34:30.150Z,63.90
2019-03-21T21:36:58.150Z,63.50
2019-03-21T21:39:26.156Z,63.60
2019-03-21T21:41:54.190Z,64.40
2019-03-21T21:44:22.307Z,63.60
2019-03-21T21:46:50.368Z,63.50
2019-03-21T21:49:18.404Z,63.70
2019-03-21T21:51:48.932Z,63.40
2019-03-21T21:54:17.253Z,63.70
2019-03-21T21:56:45.328Z,63.30
2019-03-21T21:59:13.398Z,63.30
2019-03-21T22:01:41.453Z,63.20
2019-03-21T22:04:09.433Z,62.80
2019-03-21T22:06:37.705Z,63.10
2019-03-21T22:09:07.807Z,63.00
2019-03-21T22:11:35.748Z,62.10
2019-03-21T22:14:03.744Z,62.60
2019-03-21T22:16:31.788Z,62.90
2019-03-21T22:19:02.016Z,63.10
2019-03-21T22:21:30.068Z,63.00
2019-03-21T22:23:58.071Z,63.60
2019-03-21T22:26:29.871Z,63.40
2019-03-21T22:28:55.926Z,63.90
2019-03-21T22:31:23.934Z,63.60
2019-03-21T22:33:52.295Z,63.10
2019-03-21T22:36:20.280Z,63.30
2019-03-21T22:38:48.277Z,62.80
2019-03-21T22:41:18.821Z,63.00
2019-03-21T22:43:46.042Z,62.60
2019-03-21T22:46:14.103Z,63.00
2019-03-21T22:48:42.072Z,63.00
2019-03-21T22:51:10.057Z,63.10
2019-03-21T22:53:38.088Z,63.00
2019-03-21T22:56:06.105Z,63.00
2019-03-21T22:58:36.499Z,63.30
2019-03-21T23:01:05.212Z,63.20
2019-03-21T23:03:33.224Z,63.60
2019-03-21T23:06:04.234Z,63.20
2019-03-21T23:08:32.193Z,63.80
2019-03-21T23:11:00.583Z,63.80
2019-03-21T23:13:28.627Z,64.20
2019-03-21T23:15:57.769Z,64.50
2019-03-21T23:18:25.963Z,65.20
2019-03-21T23:20:53.896Z,65.60
2019-03-21T23:23:21.847Z,65.90
2019-03-21T23:25:49.857Z,66.20
2019-03-21T23:28:17.903Z,65.40
2019-03-21T23:30:48.649Z,65.50
2019-03-21T23:33:16.643Z,65.30
2019-03-21T23:35:45.052Z,65.40
2019-03-21T23:38:13.042Z,65.50
2019-03-21T23:40:41.050Z,65.10
2019-03-21T23:43:09.066Z,65.20
2019-03-21T23:45:37.061Z,65.20
2019-03-21T23:48:05.053Z,65.20
2019-03-21T23:50:33.034Z,65.30
2019-03-21T23:53:01.294Z,65.70
2019-03-21T23:55:29.301Z,66.10
2019-03-21T23:57:57.342Z,66.20
